createdAt,value
2023-05-05T00:00:53.876Z,1037.00
2023-05-05T00:01:53.921Z,1035.00
2023-05-05T00:02:53.960Z,1034.00
2023-05-05T00:03:53.982Z,1033.00
2023-05-05T00:04:53.966Z,1033.00
2023-05-05T00:05:53.994Z,1032.00
2023-05-05T00:06:54.035Z,1031.00
2023-05-05T00:07:54.050Z,1031.00
2023-05-05T00:08:54.423Z,1031.00
2023-05-05T00:09:54.082Z,1033.00
2023-05-05T00:10:54.115Z,1034.00
2023-05-05T00:11:54.135Z,1037.00
2023-05-05T00:12:54.208Z,1037.00
2023-05-05T00:13:54.179Z,1037.00
2023-05-05T00:14:54.203Z,1034.00
2023-05-05T00:15:54.212Z,1037.00
2023-05-05T00:16:54.250Z,1036.00
2023-05-05T00:17:54.275Z,1036.00
2023-05-05T00:18:54.262Z,1034.00
2023-05-05T00:19:54.285Z,1031.00
2023-05-05T00:20:54.312Z,1032.00
2023-05-05T00:21:54.329Z,1032.00
2023-05-05T00:22:54.356Z,1035.00
2023-05-05T00:23:54.377Z,1035.00
2023-05-05T00:24:55.747Z,1034.00
2023-05-05T00:25:54.434Z,1034.00
2023-05-05T00:26:54.453Z,1030.00
2023-05-05T00:27:54.500Z,1030.00
2023-05-05T00:28:54.502Z,1030.00
2023-05-05T00:29:54.527Z,1030.00
2023-05-05T00:30:54.581Z,1031.00
2023-05-05T00:31:54.583Z,1030.00
2023-05-05T00:32:54.639Z,1030.00
2023-05-05T00:33:56.779Z,1028.00
2023-05-05T00:34:54.647Z,1029.00
2023-05-05T00:35:54.669Z,1027.00
2023-05-05T00:36:54.702Z,1027.00
2023-05-05T00:37:54.708Z,1025.00
2023-05-05T00:38:54.733Z,1026.00
2023-05-05T00:39:54.774Z,1026.00
2023-05-05T00:40:54.796Z,1028.00
2023-05-05T00:41:54.806Z,1028.00
2023-05-05T00:42:54.849Z,1029.00
2023-05-05T00:43:54.862Z,1031.00
2023-05-05T00:44:54.887Z,1030.00
2023-05-05T00:45:54.901Z,1028.00
2023-05-05T00:46:55.386Z,1026.00
2023-05-05T00:47:55.004Z,1027.00
2023-05-05T00:48:55.035Z,1025.00
2023-05-05T00:49:55.001Z,1026.00
2023-05-05T00:50:55.030Z,1026.00
2023-05-05T00:51:55.039Z,1028.00
2023-05-05T00:52:55.081Z,1029.00
2023-05-05T00:53:55.100Z,1029.00
2023-05-05T00:54:55.118Z,1029.00
2023-05-05T00:55:55.153Z,1028.00
2023-05-05T00:56:55.170Z,1030.00
2023-05-05T00:57:55.202Z,1025.00
2023-05-05T00:58:55.237Z,1023.00
2023-05-05T00:59:55.249Z,1022.00
2023-05-05T01:00:55.277Z,1021.00
2023-05-05T01:01:55.347Z,1021.00
2023-05-05T01:02:55.478Z,1018.00
2023-05-05T01:03:55.370Z,1020.00
2023-05-05T01:04:55.391Z,1019.00
2023-05-05T01:05:55.410Z,1018.00
2023-05-05T01:06:55.435Z,1015.00
2023-05-05T01:07:55.456Z,1014.00
2023-05-05T01:08:55.492Z,1016.00
2023-05-05T01:10:07.277Z,1015.00
2023-05-05T01:10:56.527Z,1014.00
2023-05-05T01:11:55.510Z,1011.00
2023-05-05T01:12:55.547Z,1010.00
2023-05-05T01:13:55.514Z,1012.00
2023-05-05T01:14:55.505Z,1010.00
2023-05-05T01:15:55.523Z,1008.00
2023-05-05T01:16:55.498Z,1008.00
2023-05-05T01:17:55.535Z,1008.00
2023-05-05T01:18:55.499Z,1006.00
2023-05-05T01:19:55.487Z,1006.00
2023-05-05T01:20:55.485Z,1003.00
2023-05-05T01:21:55.473Z,1001.00
2023-05-05T01:22:56.238Z,1001.00
2023-05-05T01:23:55.471Z,999.00
2023-05-05T01:24:55.464Z,1002.00
2023-05-05T01:25:55.480Z,1001.00
2023-05-05T01:26:55.502Z,1002.00
2023-05-05T01:27:55.539Z,1005.00
2023-05-05T01:28:55.580Z,1006.00
2023-05-05T01:29:55.601Z,1009.00
2023-05-05T01:30:55.636Z,1011.00
2023-05-05T01:31:55.691Z,1012.00
2023-05-05T01:32:55.738Z,1010.00
2023-05-05T01:33:56.780Z,1009.00
2023-05-05T01:34:55.763Z,1007.00
2023-05-05T01:35:55.796Z,1008.00
2023-05-05T01:36:55.813Z,1007.00
2023-05-05T01:37:55.868Z,1007.00
2023-05-05T01:38:55.878Z,1006.00
2023-05-05T01:39:55.903Z,1006.00
2023-05-05T01:40:55.944Z,1006.00
2023-05-05T01:41:55.965Z,1005.00
2023-05-05T01:42:55.989Z,1005.00
2023-05-05T01:43:56.003Z,1006.00
2023-05-05T01:44:56.045Z,1004.00
2023-05-05T01:45:56.116Z,1004.00
2023-05-05T01:46:56.115Z,1003.00
2023-05-05T01:47:56.174Z,1000.00
2023-05-05T01:48:56.164Z,1003.00
2023-05-05T01:49:56.194Z,1007.00
2023-05-05T01:50:56.227Z,1006.00
2023-05-05T01:51:56.264Z,1005.00
2023-05-05T01:52:56.291Z,1005.00
2023-05-05T01:53:56.336Z,1006.00
2023-05-05T01:54:56.362Z,1007.00
2023-05-05T01:55:56.394Z,1007.00
2023-05-05T01:56:56.421Z,1007.00
2023-05-05T01:57:56.810Z,1007.00
2023-05-05T01:58:56.470Z,1009.00
2023-05-05T01:59:56.496Z,1005.00
2023-05-05T02:00:56.700Z,1007.00
2023-05-05T02:01:57.689Z,1005.00
2023-05-05T02:02:56.750Z,1007.00
2023-05-05T02:03:56.624Z,1009.00
2023-05-05T02:04:56.663Z,1009.00
2023-05-05T02:05:56.685Z,1009.00
2023-05-05T02:06:56.726Z,1009.00
2023-05-05T02:07:56.763Z,1008.00
2023-05-05T02:08:56.789Z,1010.00
2023-05-05T02:09:56.822Z,1009.00
2023-05-05T02:10:56.849Z,1007.00
2023-05-05T02:11:57.835Z,1007.00
2023-05-05T02:12:57.038Z,1008.00
2023-05-05T02:13:56.957Z,1008.00
2023-05-05T02:14:56.985Z,1009.00
2023-05-05T02:15:57.041Z,1008.00
2023-05-05T02:16:57.050Z,1008.00
2023-05-05T02:17:57.117Z,1009.00
2023-05-05T02:18:57.117Z,1006.00
2023-05-05T02:19:57.156Z,1004.00
2023-05-05T02:20:57.184Z,1004.00
2023-05-05T02:21:57.243Z,1004.00
2023-05-05T02:22:57.252Z,1002.00
2023-05-05T02:23:57.274Z,1001.00
2023-05-05T02:24:57.290Z,997.00
2023-05-05T02:25:57.327Z,994.00
2023-05-05T02:26:57.350Z,999.00
2023-05-05T02:27:57.415Z,1000.00
2023-05-05T02:28:57.384Z,1001.00
2023-05-05T02:29:57.401Z,1002.00
2023-05-05T02:30:57.560Z,1001.00
2023-05-05T02:31:57.452Z,1001.00
2023-05-05T02:32:57.560Z,1002.00
2023-05-05T02:33:57.528Z,998.00
2023-05-05T02:34:57.552Z,998.00
2023-05-05T02:35:57.595Z,998.00
2023-05-05T02:36:57.621Z,1000.00
2023-05-05T02:37:57.651Z,1000.00
2023-05-05T02:38:57.674Z,999.00
2023-05-05T02:39:57.701Z,1002.00
2023-05-05T02:40:57.732Z,999.00
2023-05-05T02:41:57.758Z,1000.00
2023-05-05T02:42:57.796Z,995.00
2023-05-05T02:43:57.813Z,993.00
2023-05-05T02:44:57.836Z,992.00
2023-05-05T02:45:57.861Z,991.00
2023-05-05T02:46:57.891Z,994.00
2023-05-05T02:47:58.000Z,996.00
2023-05-05T02:48:57.946Z,996.00
2023-05-05T02:49:57.968Z,998.00
2023-05-05T02:50:58.005Z,997.00
2023-05-05T02:51:58.039Z,999.00
2023-05-05T02:52:58.046Z,999.00
2023-05-05T02:53:59.305Z,996.00
2023-05-05T02:54:58.102Z,994.00
2023-05-05T02:55:58.130Z,991.00
2023-05-05T02:56:58.171Z,991.00
2023-05-05T02:57:58.174Z,994.00
2023-05-05T02:58:58.204Z,995.00
2023-05-05T02:59:58.229Z,993.00
2023-05-05T03:00:58.255Z,991.00
2023-05-05T03:01:58.311Z,989.00
2023-05-05T03:02:58.360Z,987.00
2023-05-05T03:03:58.347Z,990.00
2023-05-05T03:04:58.335Z,989.00
2023-05-05T03:05:58.361Z,992.00
2023-05-05T03:06:58.367Z,990.00
2023-05-05T03:07:58.399Z,989.00
2023-05-05T03:08:58.414Z,989.00
2023-05-05T03:10:00.294Z,988.00
2023-05-05T03:10:58.468Z,986.00
2023-05-05T03:11:58.485Z,990.00
2023-05-05T03:12:58.532Z,990.00
2023-05-05T03:13:59.792Z,990.00
2023-05-05T03:14:58.546Z,987.00
2023-05-05T03:15:58.632Z,990.00
2023-05-05T03:16:58.581Z,994.00
2023-05-05T03:17:58.622Z,992.00
2023-05-05T03:18:58.638Z,989.00
2023-05-05T03:19:58.634Z,986.00
2023-05-05T03:20:58.668Z,991.00
2023-05-05T03:21:58.681Z,992.00
2023-05-05T03:22:58.705Z,987.00
2023-05-05T03:23:58.728Z,987.00
2023-05-05T03:24:58.746Z,987.00
2023-05-05T03:25:58.786Z,982.00
2023-05-05T03:26:58.805Z,980.00
2023-05-05T03:27:58.827Z,984.00
2023-05-05T03:28:58.866Z,987.00
2023-05-05T03:29:58.873Z,986.00
2023-05-05T03:30:58.905Z,987.00
2023-05-05T03:31:58.957Z,986.00
2023-05-05T03:32:58.980Z,987.00
2023-05-05T03:33:58.975Z,988.00
2023-05-05T03:34:58.996Z,989.00
2023-05-05T03:35:59.038Z,987.00
2023-05-05T03:36:59.055Z,989.00
2023-05-05T03:37:59.076Z,989.00
2023-05-05T03:38:59.096Z,991.00
2023-05-05T03:40:00.334Z,986.00
2023-05-05T03:40:59.325Z,985.00
2023-05-05T03:41:59.174Z,983.00
2023-05-05T03:42:59.212Z,982.00
2023-05-05T03:43:59.216Z,981.00
2023-05-05T03:44:59.605Z,979.00
2023-05-05T03:45:59.368Z,980.00
2023-05-05T03:46:59.291Z,977.00
2023-05-05T03:47:59.665Z,977.00
2023-05-05T03:48:59.344Z,982.00
2023-05-05T03:49:59.704Z,983.00
2023-05-05T03:50:59.384Z,980.00
2023-05-05T03:51:59.402Z,977.00
2023-05-05T03:52:59.429Z,977.00
2023-05-05T03:53:59.454Z,976.00
2023-05-05T03:54:59.876Z,976.00
2023-05-05T03:55:59.498Z,978.00
2023-05-05T03:56:59.521Z,979.00
2023-05-05T03:57:59.553Z,974.00
2023-05-05T03:58:59.574Z,978.00
2023-05-05T03:59:59.599Z,974.00
2023-05-05T04:00:59.626Z,973.00
2023-05-05T04:01:59.661Z,972.00
2023-05-05T04:02:59.737Z,971.00
2023-05-05T04:03:59.733Z,973.00
2023-05-05T04:04:59.705Z,975.00
2023-05-05T04:05:59.729Z,976.00
2023-05-05T04:06:59.752Z,971.00
2023-05-05T04:07:59.771Z,970.00
2023-05-05T04:08:59.798Z,968.00
2023-05-05T04:09:59.831Z,970.00
2023-05-05T04:10:59.859Z,973.00
2023-05-05T04:11:59.874Z,973.00
2023-05-05T04:12:59.959Z,975.00
2023-05-05T04:13:59.932Z,974.00
2023-05-05T04:14:59.956Z,976.00
2023-05-05T04:16:00.065Z,975.00
2023-05-05T04:17:00.004Z,974.00
2023-05-05T04:18:00.102Z,974.00
2023-05-05T04:19:00.100Z,975.00
2023-05-05T04:20:00.147Z,977.00
2023-05-05T04:21:00.832Z,979.00
2023-05-05T04:22:00.265Z,979.00
2023-05-05T04:23:00.167Z,974.00
2023-05-05T04:24:00.205Z,973.00
2023-05-05T04:25:00.251Z,970.00
2023-05-05T04:26:00.252Z,973.00
2023-05-05T04:27:00.254Z,973.00
2023-05-05T04:28:00.284Z,970.00
2023-05-05T04:29:00.299Z,968.00
2023-05-05T04:30:00.332Z,966.00
2023-05-05T04:31:00.392Z,968.00
2023-05-05T04:32:00.420Z,969.00
2023-05-05T04:33:00.457Z,971.00
2023-05-05T04:34:00.977Z,971.00
2023-05-05T04:35:00.440Z,975.00
2023-05-05T04:36:00.463Z,975.00
2023-05-05T04:37:01.883Z,973.00
2023-05-05T04:38:00.497Z,975.00
2023-05-05T04:39:00.559Z,973.00
2023-05-05T04:40:00.528Z,973.00
2023-05-05T04:41:00.555Z,969.00
2023-05-05T04:42:00.584Z,968.00
2023-05-05T04:43:01.904Z,966.00
2023-05-05T04:44:00.642Z,967.00
2023-05-05T04:45:00.751Z,969.00
2023-05-05T04:46:00.660Z,969.00
2023-05-05T04:47:00.667Z,964.00
2023-05-05T04:48:00.727Z,965.00
2023-05-05T04:49:00.705Z,962.00
2023-05-05T04:50:00.750Z,964.00
2023-05-05T04:51:00.746Z,964.00
2023-05-05T04:52:00.772Z,963.00
2023-05-05T04:53:00.808Z,961.00
2023-05-05T04:54:00.910Z,961.00
2023-05-05T04:55:00.840Z,961.00
2023-05-05T04:56:00.856Z,959.00
2023-05-05T04:57:00.874Z,960.00
2023-05-05T04:58:00.891Z,960.00
2023-05-05T04:59:00.920Z,961.00
2023-05-05T05:00:01.090Z,961.00
2023-05-05T05:01:00.962Z,963.00
2023-05-05T05:02:01.026Z,966.00
2023-05-05T05:03:01.092Z,965.00
2023-05-05T05:04:01.039Z,963.00
2023-05-05T05:05:01.045Z,965.00
2023-05-05T05:06:01.068Z,963.00
2023-05-05T05:07:01.079Z,961.00
2023-05-05T05:08:01.114Z,962.00
2023-05-05T05:09:01.138Z,963.00
2023-05-05T05:10:01.168Z,963.00
2023-05-05T05:11:01.207Z,963.00
2023-05-05T05:12:01.208Z,963.00
2023-05-05T05:13:01.258Z,964.00
2023-05-05T05:14:01.260Z,964.00
2023-05-05T05:15:01.278Z,964.00
2023-05-05T05:16:01.329Z,965.00
2023-05-05T05:17:01.314Z,968.00
2023-05-05T05:18:01.360Z,967.00
2023-05-05T05:19:01.878Z,968.00
2023-05-05T05:20:01.385Z,969.00
2023-05-05T05:21:01.428Z,968.00
2023-05-05T05:22:01.473Z,969.00
2023-05-05T05:23:01.503Z,895.00
2023-05-05T05:24:01.504Z,882.00
2023-05-05T05:25:01.563Z,879.00
2023-05-05T05:26:01.596Z,870.00
2023-05-05T05:27:01.700Z,857.00
2023-05-05T05:28:10.241Z,887.00
2023-05-05T05:29:02.707Z,851.00
2023-05-05T05:30:01.711Z,845.00
2023-05-05T05:31:01.721Z,820.00
2023-05-05T05:32:01.756Z,818.00
2023-05-05T05:33:01.753Z,824.00
2023-05-05T05:34:01.713Z,866.00
2023-05-05T05:35:01.734Z,926.00
2023-05-05T05:36:01.740Z,948.00
2023-05-05T05:37:01.744Z,966.00
2023-05-05T05:38:01.745Z,976.00
2023-05-05T05:39:01.757Z,974.00
2023-05-05T05:40:01.798Z,960.00
2023-05-05T05:41:01.812Z,963.00
2023-05-05T05:42:01.840Z,961.00
2023-05-05T05:43:01.839Z,986.00
2023-05-05T05:44:01.848Z,974.00
2023-05-05T05:45:01.872Z,1020.00
2023-05-05T05:46:01.916Z,1050.00
2023-05-05T05:47:01.905Z,1036.00
2023-05-05T05:48:01.964Z,1022.00
2023-05-05T05:49:01.947Z,1046.00
2023-05-05T05:50:01.949Z,1047.00
2023-05-05T05:51:01.957Z,1040.00
2023-05-05T05:52:01.964Z,1032.00
2023-05-05T05:53:01.992Z,1106.00
2023-05-05T05:54:02.002Z,1095.00
2023-05-05T05:55:02.031Z,1080.00
2023-05-05T05:56:02.040Z,1036.00
2023-05-05T05:57:02.066Z,1004.00
2023-05-05T05:58:02.100Z,863.00
2023-05-05T05:59:02.120Z,821.00
2023-05-05T06:00:02.388Z,791.00
2023-05-05T06:01:02.178Z,792.00
2023-05-05T06:02:02.251Z,735.00
2023-05-05T06:03:02.282Z,789.00
2023-05-05T06:04:02.359Z,814.00
2023-05-05T06:05:02.313Z,804.00
2023-05-05T06:06:02.348Z,789.00
2023-05-05T06:07:02.366Z,804.00
2023-05-05T06:08:02.396Z,823.00
2023-05-05T06:09:02.411Z,834.00
2023-05-05T06:10:14.435Z,851.00
2023-05-05T06:11:03.422Z,858.00
2023-05-05T06:12:02.422Z,910.00
2023-05-05T06:13:02.474Z,859.00
2023-05-05T06:14:02.435Z,867.00
2023-05-05T06:15:02.424Z,877.00
2023-05-05T06:16:02.417Z,880.00
2023-05-05T06:17:02.416Z,886.00
2023-05-05T06:18:02.410Z,878.00
2023-05-05T06:19:02.393Z,898.00
2023-05-05T06:20:02.401Z,911.00
2023-05-05T06:21:02.389Z,992.00
2023-05-05T06:22:02.392Z,882.00
2023-05-05T06:23:02.394Z,855.00
2023-05-05T06:24:03.394Z,851.00
2023-05-05T06:25:02.381Z,851.00
2023-05-05T06:26:02.379Z,849.00
2023-05-05T06:27:02.367Z,924.00
2023-05-05T06:28:02.362Z,942.00
2023-05-05T06:29:02.937Z,931.00
2023-05-05T06:30:02.337Z,926.00
2023-05-05T06:31:03.376Z,1010.00
2023-05-05T06:32:02.330Z,1114.00
2023-05-05T06:33:02.362Z,963.00
2023-05-05T06:34:02.292Z,956.00
2023-05-05T06:35:02.305Z,913.00
2023-05-05T06:36:02.272Z,926.00
2023-05-05T06:37:02.298Z,947.00
2023-05-05T06:38:02.278Z,968.00
2023-05-05T06:39:02.237Z,974.00
2023-05-05T06:40:02.246Z,969.00
2023-05-05T06:41:02.237Z,962.00
2023-05-05T06:42:02.270Z,994.00
2023-05-05T06:43:02.298Z,1002.00
2023-05-05T06:44:02.323Z,1013.00
2023-05-05T06:45:02.358Z,1079.00
2023-05-05T06:46:02.354Z,1091.00
2023-05-05T06:47:02.461Z,1102.00
2023-05-05T06:48:04.100Z,1043.00
2023-05-05T06:49:04.056Z,1098.00
2023-05-05T06:50:02.337Z,1119.00
2023-05-05T06:51:02.937Z,1144.00
2023-05-05T06:52:02.311Z,1159.00
2023-05-05T06:53:02.275Z,1175.00
2023-05-05T06:54:02.257Z,1184.00
2023-05-05T06:55:02.278Z,1186.00
2023-05-05T06:56:02.203Z,1190.00
2023-05-05T06:57:02.189Z,1195.00
2023-05-05T06:58:02.183Z,1232.00
2023-05-05T06:59:02.145Z,1232.00
2023-05-05T07:00:02.185Z,1265.00
2023-05-05T07:01:02.141Z,1268.00
2023-05-05T07:02:02.166Z,1245.00
2023-05-05T07:03:02.136Z,1243.00
2023-05-05T07:04:02.130Z,1252.00
2023-05-05T07:05:02.560Z,1265.00
2023-05-05T07:06:02.027Z,1257.00
2023-05-05T07:07:02.017Z,1270.00
2023-05-05T07:08:02.001Z,1333.00
2023-05-05T07:09:01.976Z,1324.00
2023-05-05T07:10:01.969Z,1311.00
2023-05-05T07:11:01.973Z,1352.00
2023-05-05T07:12:01.950Z,1356.00
2023-05-05T07:13:02.029Z,1368.00
2023-05-05T07:14:01.887Z,1360.00
2023-05-05T07:15:07.036Z,1367.00
2023-05-05T07:16:02.864Z,1435.00
2023-05-05T07:17:01.836Z,1452.00
2023-05-05T07:18:01.961Z,1470.00
2023-05-05T07:19:01.759Z,1492.00
2023-05-05T07:20:02.556Z,1521.00
2023-05-05T07:21:01.706Z,1531.00
2023-05-05T07:22:02.539Z,1536.00
2023-05-05T07:23:01.681Z,1517.00
2023-05-05T07:24:01.643Z,1462.00
2023-05-05T07:25:01.636Z,1519.00
2023-05-05T07:26:01.597Z,1531.00
2023-05-05T07:27:01.579Z,1536.00
2023-05-05T07:28:01.558Z,1541.00
2023-05-05T07:29:01.527Z,1548.00
2023-05-05T07:30:01.506Z,1557.00
2023-05-05T07:31:01.474Z,1614.00
2023-05-05T07:32:01.524Z,1606.00
2023-05-05T07:33:01.526Z,1614.00
2023-05-05T07:34:01.615Z,1638.00
2023-05-05T07:35:01.390Z,1643.00
2023-05-05T07:36:01.372Z,1650.00
2023-05-05T07:37:01.356Z,1656.00
2023-05-05T07:38:01.332Z,1689.00
2023-05-05T07:39:01.329Z,1708.00
2023-05-05T07:40:01.297Z,1726.00
2023-05-05T07:41:01.271Z,1747.00
2023-05-05T07:42:01.267Z,1753.00
2023-05-05T07:43:01.232Z,1772.00
2023-05-05T07:44:01.224Z,1781.00
2023-05-05T07:45:01.201Z,1794.00
2023-05-05T07:46:01.241Z,1812.00
2023-05-05T07:47:01.196Z,1839.00
2023-05-05T07:48:01.184Z,1848.00
2023-05-05T07:49:01.376Z,1858.00
2023-05-05T07:50:01.298Z,1871.00
2023-05-05T07:51:01.136Z,1896.00
2023-05-05T07:52:01.097Z,1898.00
2023-05-05T07:53:10.571Z,1902.00
2023-05-05T07:54:02.048Z,1905.00
2023-05-05T07:55:01.050Z,1934.00
2023-05-05T07:56:01.008Z,1951.00
2023-05-05T07:57:00.998Z,1967.00
2023-05-05T07:58:00.973Z,1968.00
2023-05-05T07:59:00.959Z,1980.00
2023-05-05T08:00:01.164Z,1986.00
2023-05-05T08:01:00.900Z,2000.00
2023-05-05T08:02:00.883Z,2012.00
2023-05-05T08:03:00.877Z,2023.00
2023-05-05T08:04:00.912Z,2042.00
2023-05-05T08:05:00.851Z,2045.00
2023-05-05T08:06:00.917Z,2050.00
2023-05-05T08:07:01.555Z,2074.00
2023-05-05T08:08:00.756Z,2092.00
2023-05-05T08:09:00.759Z,2118.00
2023-05-05T08:10:00.714Z,2109.00
2023-05-05T08:11:00.693Z,2099.00
2023-05-05T08:12:00.669Z,2104.00
2023-05-05T08:13:00.687Z,2078.00
2023-05-05T08:14:00.647Z,2110.00
2023-05-05T08:15:00.611Z,2120.00
2023-05-05T08:16:00.674Z,2119.00
2023-05-05T08:17:00.557Z,2011.00
2023-05-05T08:18:00.623Z,2010.00
2023-05-05T08:19:00.615Z,1972.00
2023-05-05T08:20:00.480Z,1920.00
2023-05-05T08:21:00.461Z,1802.00
2023-05-05T08:22:01.365Z,1839.00
2023-05-05T08:23:00.419Z,1822.00
2023-05-05T08:24:00.423Z,1819.00
2023-05-05T08:25:00.373Z,1827.00
2023-05-05T08:26:00.350Z,1826.00
2023-05-05T08:27:00.322Z,1829.00
2023-05-05T08:28:00.300Z,1870.00
2023-05-05T08:29:00.327Z,1890.00
2023-05-05T08:30:00.340Z,1976.00
2023-05-05T08:31:00.419Z,1996.00
2023-05-05T08:32:00.535Z,2003.00
2023-05-05T08:33:01.354Z,2016.00
2023-05-05T08:34:00.491Z,2010.00
2023-05-05T08:35:00.531Z,2011.00
2023-05-05T08:36:00.559Z,2022.00
2023-05-05T08:37:00.609Z,2029.00
2023-05-05T08:38:00.721Z,2068.00
2023-05-05T08:39:00.658Z,2086.00
2023-05-05T08:40:00.715Z,2087.00
2023-05-05T08:41:00.750Z,2098.00
2023-05-05T08:42:00.779Z,2112.00
2023-05-05T08:43:00.852Z,2125.00
2023-05-05T08:44:00.864Z,2185.00
2023-05-05T08:45:01.163Z,2192.00
2023-05-05T08:46:00.956Z,2197.00
2023-05-05T08:47:01.042Z,2206.00
2023-05-05T08:48:01.066Z,2235.00
2023-05-05T08:49:01.077Z,2241.00
2023-05-05T08:50:01.087Z,2246.00
2023-05-05T08:51:03.300Z,2264.00
2023-05-05T08:52:01.098Z,2291.00
2023-05-05T08:53:01.110Z,2296.00
2023-05-05T08:54:01.161Z,2313.00
2023-05-05T08:55:01.041Z,2356.00
2023-05-05T08:56:01.002Z,2368.00
2023-05-05T08:57:00.995Z,2363.00
2023-05-05T08:58:00.993Z,2371.00
2023-05-05T08:59:00.944Z,2397.00
2023-05-05T09:00:01.174Z,2400.00
2023-05-05T09:01:00.996Z,2407.00
2023-05-05T09:02:00.989Z,2423.00
2023-05-05T09:03:01.367Z,2470.00
2023-05-05T09:04:01.083Z,2479.00
2023-05-05T09:05:01.120Z,2497.00
2023-05-05T09:06:01.148Z,2510.00
2023-05-05T09:07:01.190Z,2526.00
2023-05-05T09:08:01.218Z,2544.00
2023-05-05T09:09:01.245Z,2563.00
2023-05-05T09:10:01.349Z,2567.00
2023-05-05T09:11:01.316Z,2574.00
2023-05-05T09:12:01.347Z,2590.00
2023-05-05T09:13:01.482Z,2607.00
2023-05-05T09:14:01.409Z,2617.00
2023-05-05T09:15:01.447Z,2626.00
2023-05-05T09:16:01.476Z,2641.00
2023-05-05T09:17:01.560Z,2569.00
2023-05-05T09:18:01.630Z,2475.00
2023-05-05T09:19:01.521Z,2499.00
2023-05-05T09:20:01.508Z,2488.00
2023-05-05T09:21:01.491Z,2461.00
2023-05-05T09:22:01.474Z,2451.00
2023-05-05T09:23:01.457Z,2443.00
2023-05-05T09:24:07.780Z,2433.00
2023-05-05T09:25:02.407Z,2433.00
2023-05-05T09:26:01.470Z,2431.00
2023-05-05T09:27:01.396Z,2428.00
2023-05-05T09:28:02.043Z,2427.00
2023-05-05T09:29:02.092Z,2424.00
2023-05-05T09:30:01.347Z,2422.00
2023-05-05T09:31:01.338Z,2419.00
2023-05-05T09:32:01.295Z,2406.00
2023-05-05T09:33:01.325Z,2400.00
2023-05-05T09:34:01.269Z,2383.00
2023-05-05T09:35:01.256Z,2378.00
2023-05-05T09:36:01.240Z,2379.00
2023-05-05T09:37:01.212Z,2382.00
2023-05-05T09:38:01.187Z,2379.00
2023-05-05T09:39:01.197Z,2372.00
2023-05-05T09:40:01.208Z,2372.00
2023-05-05T09:41:01.177Z,2376.00
2023-05-05T09:42:01.309Z,2368.00
2023-05-05T09:43:01.221Z,2365.00
2023-05-05T09:44:01.097Z,2361.00
2023-05-05T09:45:01.164Z,2356.00
2023-05-05T09:46:01.161Z,2334.00
2023-05-05T09:47:01.114Z,2338.00
2023-05-05T09:48:01.173Z,2327.00
2023-05-05T09:49:01.114Z,2317.00
2023-05-05T09:50:01.112Z,2313.00
2023-05-05T09:51:01.104Z,2314.00
2023-05-05T09:52:01.083Z,2316.00
2023-05-05T09:53:01.096Z,2319.00
2023-05-05T09:54:01.077Z,2313.00
2023-05-05T09:55:02.067Z,2303.00
2023-05-05T09:56:01.100Z,2300.00
2023-05-05T09:57:01.077Z,2300.00
2023-05-05T09:58:02.071Z,2300.00
2023-05-05T09:59:01.064Z,2301.00
2023-05-05T10:00:01.245Z,2294.00
2023-05-05T10:01:01.064Z,2292.00
2023-05-05T10:02:01.130Z,2290.00
2023-05-05T10:03:01.144Z,2292.00
2023-05-05T10:04:02.034Z,2297.00
2023-05-05T10:05:02.431Z,2297.00
2023-05-05T10:06:02.085Z,2296.00
2023-05-05T10:07:01.091Z,2289.00
2023-05-05T10:08:01.107Z,2287.00
2023-05-05T10:09:01.119Z,2292.00
2023-05-05T10:10:01.134Z,2294.00
2023-05-05T10:11:01.153Z,2286.00
2023-05-05T10:12:01.149Z,2284.00
2023-05-05T10:13:02.179Z,2287.00
2023-05-05T10:14:01.273Z,2282.00
2023-05-05T10:15:01.170Z,2453.00
2023-05-05T10:16:01.200Z,2369.00
2023-05-05T10:17:01.167Z,2312.00
2023-05-05T10:18:07.852Z,2151.00
2023-05-05T10:19:02.185Z,1973.00
2023-05-05T10:20:01.182Z,1705.00
2023-05-05T10:21:01.176Z,1496.00
2023-05-05T10:22:01.123Z,1382.00
2023-05-05T10:23:01.091Z,1351.00
2023-05-05T10:24:01.059Z,1327.00
2023-05-05T10:25:01.038Z,1340.00
2023-05-05T10:26:01.022Z,1246.00
2023-05-05T10:27:01.008Z,1249.00
2023-05-05T10:28:00.973Z,1167.00
2023-05-05T10:29:00.955Z,1145.00
2023-05-05T10:30:01.213Z,1153.00
2023-05-05T10:31:01.019Z,1156.00
2023-05-05T10:32:01.084Z,1156.00
2023-05-05T10:33:18.304Z,1091.00
2023-05-05T10:34:02.175Z,1052.00
2023-05-05T10:35:02.108Z,1050.00
2023-05-05T10:36:01.036Z,1051.00
2023-05-05T10:37:01.012Z,1037.00
2023-05-05T10:38:01.006Z,1025.00
2023-05-05T10:39:00.992Z,995.00
2023-05-05T10:40:00.956Z,983.00
2023-05-05T10:41:00.931Z,986.00
2023-05-05T10:42:00.916Z,979.00
2023-05-05T10:43:00.873Z,924.00
2023-05-05T10:44:03.647Z,921.00
2023-05-05T10:45:01.238Z,937.00
2023-05-05T10:46:00.973Z,950.00
2023-05-05T10:47:00.762Z,944.00
2023-05-05T10:48:00.864Z,962.00
2023-05-05T10:49:00.761Z,948.00
2023-05-05T10:50:00.698Z,943.00
2023-05-05T10:51:00.633Z,881.00
2023-05-05T10:52:00.634Z,862.00
2023-05-05T10:53:00.588Z,858.00
2023-05-05T10:54:00.629Z,857.00
2023-05-05T10:55:00.545Z,837.00
2023-05-05T10:56:00.510Z,837.00
2023-05-05T10:57:00.487Z,825.00
2023-05-05T10:58:00.484Z,832.00
2023-05-05T10:59:00.952Z,849.00
2023-05-05T11:00:00.404Z,859.00
2023-05-05T11:01:00.407Z,864.00
2023-05-05T11:02:00.345Z,888.00
2023-05-05T11:03:00.428Z,909.00
2023-05-05T11:04:00.353Z,893.00
2023-05-05T11:05:00.288Z,843.00
2023-05-05T11:06:00.263Z,831.00
2023-05-05T11:07:00.243Z,824.00
2023-05-05T11:08:00.234Z,774.00
2023-05-05T11:09:00.205Z,763.00
2023-05-05T11:10:00.229Z,761.00
2023-05-05T11:11:00.160Z,760.00
2023-05-05T11:12:00.163Z,760.00
2023-05-05T11:13:00.200Z,764.00
2023-05-05T11:14:00.161Z,765.00
2023-05-05T11:15:00.153Z,768.00
2023-05-05T11:16:00.108Z,772.00
2023-05-05T11:17:00.131Z,770.00
2023-05-05T11:18:00.086Z,767.00
2023-05-05T11:19:00.060Z,766.00
2023-05-05T11:20:00.022Z,765.00
2023-05-05T11:21:00.017Z,764.00
2023-05-05T11:21:59.992Z,763.00
2023-05-05T11:22:59.958Z,766.00
2023-05-05T11:23:59.947Z,767.00
2023-05-05T11:24:59.929Z,765.00
2023-05-05T11:25:59.953Z,764.00
2023-05-05T11:26:59.976Z,767.00
2023-05-05T11:28:00.018Z,766.00
2023-05-05T11:29:00.052Z,763.00
2023-05-05T11:30:00.129Z,762.00
2023-05-05T11:31:00.201Z,760.00
2023-05-05T11:32:00.178Z,755.00
2023-05-05T11:33:00.257Z,755.00
2023-05-05T11:34:00.328Z,756.00
2023-05-05T11:35:00.300Z,756.00
2023-05-05T11:36:00.379Z,758.00
2023-05-05T11:37:00.376Z,760.00
2023-05-05T11:38:00.473Z,759.00
2023-05-05T11:39:00.444Z,760.00
2023-05-05T11:40:00.495Z,760.00
2023-05-05T11:41:00.531Z,755.00
2023-05-05T11:42:02.296Z,753.00
2023-05-05T11:43:01.177Z,757.00
2023-05-05T11:44:00.540Z,762.00
2023-05-05T11:45:00.531Z,761.00
2023-05-05T11:46:00.550Z,760.00
2023-05-05T11:47:00.493Z,760.00
2023-05-05T11:48:00.529Z,762.00
2023-05-05T11:49:01.076Z,759.00
2023-05-05T11:50:00.549Z,760.00
2023-05-05T11:51:00.451Z,760.00
2023-05-05T11:52:00.461Z,761.00
2023-05-05T11:53:00.426Z,764.00
2023-05-05T11:54:00.417Z,763.00
2023-05-05T11:55:00.412Z,765.00
2023-05-05T11:56:00.394Z,766.00
2023-05-05T11:57:00.427Z,769.00
2023-05-05T11:58:00.373Z,770.00
2023-05-05T11:59:00.363Z,771.00
2023-05-05T12:00:00.358Z,768.00
2023-05-05T12:01:00.331Z,768.00
2023-05-05T12:02:00.316Z,768.00
2023-05-05T12:03:00.414Z,769.00
2023-05-05T12:04:00.402Z,770.00
2023-05-05T12:05:00.405Z,770.00
2023-05-05T12:06:00.343Z,770.00
2023-05-05T12:07:00.261Z,767.00
2023-05-05T12:08:00.239Z,765.00
2023-05-05T12:09:00.216Z,764.00
2023-05-05T12:10:00.240Z,766.00
2023-05-05T12:11:00.202Z,765.00
2023-05-05T12:12:00.179Z,766.00
2023-05-05T12:13:01.212Z,769.00
2023-05-05T12:14:00.152Z,769.00
2023-05-05T12:15:00.140Z,770.00
2023-05-05T12:16:00.192Z,772.00